Latest Weather Observations for Essendon Airport

IDV60801

Issued at 5:02 am EST Saturday 20 July 2024 (issued every 10 minutes, with the page automatically refreshed every 10 minutes)

About weather observations | Map of weather stations | Latest weather observations for VIC | Other Formats
Station Details ID: 086038 Name: ESSENDON AIRPORT Lat: -37.73 Lon: 144.91 Height: 78.4 m
Data from the previous 72 hours. | See also: Recent months at Essendon Airport
Date/Time
EST
Temp
°C
App
Temp
°C
Dew
Point
°C
Rel
Hum
%
Delta-T
°C
Wind Press
QNH
hPa
Press
MSL
hPa
Rain since
9am
mm
Dir  Spd
km/h
Gust
km/h
Spd
kts
Gust
kts
20/05:00am 10.9 4.1 6.8 76 2.0 NNW 32 44 17 24 993.5 993.6 0.0
20/04:44am 10.8 4.8 6.9 77 1.9 NNW 28 46 15 25 993.4 993.5 0.0
20/04:30am 10.6 6.1 7.1 79 1.7 N 20 26 11 14 993.4 993.5 0.0
20/04:00am 11.2 4.7 6.5 73 2.2 NNW 30 43 16 23 993.7 993.8 0.0
20/03:30am 11.0 5.7 6.6 74 2.1 NNW 24 30 13 16 993.9 994.0 0.0
20/03:00am 11.2 4.1 6.3 72 2.3 NNW 33 48 18 26 994.2 994.3 0.0
20/02:32am 11.2 4.9 7.3 77 1.9 NNW 30 48 16 26 994.6 994.7 0.0
20/02:30am 11.2 5.3 7.3 77 1.9 NNW 28 41 15 22 994.6 994.7 0.0
20/02:00am 11.0 5.2 7.9 81 1.5 N 28 43 15 23 994.9 995.0 0.0
20/01:30am 11.1 3.9 7.6 79 1.7 NNW 35 44 19 24 995.0 995.1 0.0
20/01:00am 11.2 2.9 7.7 79 1.7 NNW 41 61 22 33 995.3 995.4 0.0
20/12:48am 10.9 3.8 8.0 82 1.4 NNW 35 56 19 30 995.4 995.5 0.0
20/12:30am 10.7 3.6 8.1 84 1.3 N 35 52 19 28 995.6 995.7 0.0
20/12:00am 10.9 3.1 8.1 83 1.4 N 39 57 21 31 996.1 996.2 0.0
 
Date/Time
EST
Temp
°C
App
Temp
°C
Dew
Point
°C
Rel
Hum
%
Delta-T
°C
Wind Press
QNH
hPa
Press
MSL
hPa
Rain since
9am
mm
Dir  Spd
km/h
Gust
km/h
Spd
kts
Gust
kts
19/11:33pm 10.9 3.0 8.0 82 1.4 N 39 59 21 32 996.9 997.0 0.0
19/11:30pm 10.9 3.4 8.0 82 1.4 N 37 54 20 29 996.9 997.0 0.0
19/11:00pm 11.0 3.1 7.7 80 1.6 N 39 57 21 31 997.3 997.4 0.0
19/10:30pm 10.5 2.4 8.8 89 0.8 N 41 61 22 33 997.5 997.6 0.0
19/10:05pm 10.4 2.3 8.7 89 0.8 N 41 61 22 33 998.0 998.1 0.0
19/10:00pm 10.3 2.5 8.4 88 0.9 N 39 54 21 29 998.1 998.2 0.0
19/09:30pm 10.1 2.4 8.7 91 0.7 N 39 61 21 33 998.4 998.5 0.0
19/09:09pm 10.1 1.5 8.9 92 0.6 N 44 65 24 35 998.9 999.0 0.0
19/09:00pm 10.2 1.7 8.6 90 0.8 N 43 57 23 31 999.1 999.2 0.0
19/08:30pm 10.4 3.3 8.2 86 1.1 N 35 57 19 31 999.5 999.6 0.0
19/08:00pm 10.3 2.7 7.7 84 1.3 N 37 61 20 33 1000.2 1000.3 0.0
19/07:30pm 10.3 2.6 7.2 81 1.5 N 37 56 20 30 1001.1 1001.2 0.0
19/07:03pm 10.3 2.2 7.2 81 1.5 N 39 57 21 31 1001.8 1002.0 0.0
19/07:00pm 10.4 2.7 7.3 81 1.5 N 37 50 20 27 1002.0 1002.1 0.0
19/06:31pm 10.3 3.0 7.0 80 1.6 N 35 54 19 29 1002.9 1003.0 0.0
19/06:30pm 10.3 3.0 7.0 80 1.6 N 35 52 19 28 1002.9 1003.0 0.0
19/06:00pm 10.3 3.2 6.6 78 1.8 N 33 46 18 25 1002.6 1002.7 0.0
19/05:30pm 10.1 3.1 7.0 81 1.5 N 33 54 18 29 1003.1 1003.2 0.0
19/05:17pm 10.0 3.6 7.1 82 1.4 N 30 50 16 27 1003.3 1003.4 0.0
19/05:00pm 9.8 2.5 7.2 84 1.2 N 35 48 19 26 1003.3 1003.4 0.0
19/04:30pm 9.9 3.6 7.3 84 1.2 N 30 43 16 23 1003.7 1003.8 0.0
19/04:00pm 10.3 3.2 6.5 77 1.8 N 33 52 18 28 1003.9 1004.0 0.0
19/03:55pm 10.4 3.5 6.4 76 1.9 N 32 52 17 28 1004.1 1004.2 0.0
19/03:30pm 10.5 3.0 6.5 76 1.9 N 35 52 19 28 1004.8 1004.9 0.0
19/03:14pm 10.5 2.7 6.5 76 1.9 N 37 56 20 30 1004.7 1004.8 0.0
19/03:00pm 10.4 1.8 6.4 76 1.9 N 41 54 22 29 1005.1 1005.2 0.0
19/02:30pm 10.3 1.6 6.1 75 2.0 N 41 61 22 33 1005.1 1005.2 0.0
19/02:00pm 10.3 2.0 6.3 76 1.9 N 39 59 21 32 1004.8 1004.9 0.0
19/01:30pm 10.5 3.5 6.1 74 2.1 N 32 57 17 31 1005.6 1005.7 0.0
19/01:07pm 10.5 3.0 6.3 75 2.0 N 35 54 19 29 1005.4 1005.5 0.0
19/01:00pm 10.3 3.1 6.1 75 2.0 N 33 48 18 26 1006.1 1006.2 0.0
19/12:38pm 10.2 2.3 6.0 75 1.9 N 37 56 20 30 1006.9 1007.0 0.0
19/12:30pm 9.9 1.9 5.9 76 1.8 N 37 52 20 28 1007.1 1007.2 0.0
19/12:03pm 9.7 2.6 5.7 76 1.8 N 32 50 17 27 1008.1 1008.2 0.0
19/12:00pm 9.7 2.5 5.7 76 1.8 N 33 50 18 27 1007.9 1008.0 0.0
19/11:30am 9.6 2.5 5.4 75 1.9 N 32 50 17 27 1008.6 1008.7 0.0
19/11:08am 9.6 3.2 5.2 74 2.0 N 28 48 15 26 1009.7 1009.8 0.0
19/11:00am 9.6 3.2 5.2 74 2.0 NNW 28 43 15 23 1010.1 1010.2 0.0
19/10:34am 9.8 3.0 5.2 73 2.1 N 30 48 16 26 1010.3 1010.4 0.0
19/10:30am 9.8 2.7 5.4 74 2.0 NNW 32 48 17 26 1010.4 1010.5 0.0
19/10:29am 9.7 2.9 5.3 74 2.0 NNW 30 48 16 26 1010.6 1010.7 0.0
19/10:00am 9.2 2.7 4.8 74 2.0 N 28 41 15 22 1010.6 1010.7 0.0
19/09:37am 9.1 1.6 4.5 73 2.0 N 33 52 18 28 1010.3 1010.4 0.0
19/09:30am 9.0 1.5 4.6 74 2.0 N 33 46 18 25 1010.0 1010.1 0.0
19/09:00am 8.8 1.3 4.2 73 2.0 N 33 48 18 26 1010.0 1010.1 0.2
19/08:50am 8.7 1.2 4.3 74 1.9 N 33 54 18 29 1010.0 1010.1 0.2
19/08:30am 8.5 0.6 4.3 75 1.8 N 35 46 19 25 1011.3 1011.4 0.2
19/08:00am 8.5 -0.2 4.1 74 1.9 N 39 50 21 27 1011.0 1011.1 0.2
19/07:30am 8.7 1.1 3.9 72 2.1 N 33 50 18 27 1010.0 1010.1 0.2
19/07:17am 8.7 2.0 3.9 72 2.1 N 28 46 15 25 1010.4 1010.5 0.2
19/07:00am 8.7 1.3 3.9 72 2.1 N 32 43 17 23 1011.0 1011.1 0.2
19/06:30am 8.4 1.0 4.0 74 1.9 N 32 46 17 25 1011.1 1011.2 0.2
19/06:00am 8.5 1.8 3.8 72 2.0 N 28 39 15 21 1011.2 1011.3 0.2
19/05:30am 8.5 0.5 3.8 72 2.0 NNW 35 44 19 24 1012.5 1012.7 0.2
19/05:00am 8.4 3.2 3.7 72 2.0 N 20 32 11 17 1011.8 1012.0 0.2
19/04:30am 7.8 2.7 4.2 78 1.6 N 20 26 11 14 1012.1 1012.3 0.2
19/04:00am 7.9 2.9 4.5 79 1.5 N 20 28 11 15 1011.8 1012.0 0.2
19/03:30am 7.7 2.8 5.0 83 1.2 N 20 26 11 14 1012.4 1012.6 0.2
19/03:00am 7.4 2.6 4.9 84 1.1 N 19 26 10 14 1012.4 1012.6 0.2
19/02:30am 7.3 3.2 4.6 83 1.2 N 15 19 8 10 1012.7 1012.9 0.2
19/02:00am 7.0 2.9 4.1 82 1.3 N 15 20 8 11 1013.7 1013.9 0.2
19/01:30am 7.5 3.1 4.6 82 1.3 N 17 22 9 12 1013.7 1013.9 0.2
19/01:00am 7.8 3.4 4.7 81 1.4 N 17 22 9 12 1014.0 1014.2 0.2
19/12:30am 8.3 3.9 4.5 77 1.7 NNW 17 24 9 13 1014.4 1014.6 0.2
19/12:00am 8.9 4.1 4.5 74 1.9 NNW 19 24 10 13 1014.7 1014.9 0.2
 
Date/Time
EST
Temp
°C
App
Temp
°C
Dew
Point
°C
Rel
Hum
%
Delta-T
°C
Wind Press
QNH
hPa
Press
MSL
hPa
Rain since
9am
mm
Dir  Spd
km/h
Gust
km/h
Spd
kts
Gust
kts
18/11:30pm 8.7 4.6 4.5 75 1.9 N 15 19 8 10 1015.2 1015.3 0.2
18/11:00pm 8.4 4.3 4.6 77 1.7 N 15 20 8 11 1015.7 1015.8 0.2
18/10:30pm 8.5 4.0 4.1 74 1.9 NNW 17 22 9 12 1016.1 1016.2 0.2
18/10:00pm 8.0 4.3 4.4 78 1.6 N 13 17 7 9 1016.2 1016.3 0.2
18/09:30pm 8.2 4.1 4.2 76 1.8 NNW 15 19 8 10 1016.4 1016.5 0.2
18/09:00pm 7.7 3.8 3.4 74 1.8 NNW 13 15 7 8 1016.1 1016.2 0.2
18/08:30pm 8.2 4.4 3.7 73 1.9 NW 13 15 7 8 1016.2 1016.3 0.2
18/08:00pm 8.2 4.8 4.0 75 1.8 N 11 13 6 7 1015.8 1015.9 0.2
18/07:30pm 8.6 5.2 3.8 72 2.1 N 11 13 6 7 1015.7 1015.8 0.2
18/07:00pm 9.2 6.1 3.4 67 2.5 N 9 11 5 6 1015.6 1015.7 0.2
18/06:30pm 9.6 6.8 3.1 64 2.8 NNW 7 9 4 5 1015.7 1015.8 0.2
18/06:00pm 9.9 6.7 3.0 62 3.0 WNW 9 13 5 7 1015.9 1016.0 0.2
18/05:30pm 9.4 6.0 3.8 68 2.5 WSW 11 13 6 7 1015.9 1016.0 0.2
18/05:00pm 10.2 5.8 2.8 60 3.2 W 15 19 8 10 1015.5 1015.6 0.2
18/04:30pm 10.3 5.1 3.6 63 2.9 W 20 24 11 13 1015.3 1015.4 0.2
18/04:00pm 10.7 5.5 3.5 61 3.2 WSW 20 24 11 13 1015.2 1015.3 0.2
18/03:30pm 10.6 5.8 4.5 66 2.7 WSW 19 24 10 13 1015.0 1015.2 0.2
18/03:00pm 10.9 6.0 3.9 62 3.1 W 19 24 10 13 1015.4 1015.5 0.2
18/02:30pm 10.7 4.9 4.2 64 2.9 W 24 32 13 17 1015.5 1015.6 0.2
18/02:00pm 11.2 6.4 4.7 64 3.0 SW 19 24 10 13 1015.4 1015.5 0.2
18/01:30pm 10.7 6.3 4.6 66 2.8 SW 17 24 9 13 1015.6 1015.7 0.2
18/01:00pm 10.7 5.3 4.4 65 2.8 WSW 22 28 12 15 1015.7 1015.8 0.2
18/12:30pm 11.2 6.8 6.5 73 2.2 WSW 19 24 10 13 1016.0 1016.1 0.2
18/12:00pm 11.0 8.0 7.5 79 1.7 WSW 13 20 7 11 1016.1 1016.2 0.2
18/11:30am 10.1 6.0 6.4 78 1.7 WSW 17 22 9 12 1016.6 1016.7 0.2
18/11:00am 10.0 5.8 7.4 84 1.2 SW 19 26 10 14 1017.1 1017.2 0.2
18/10:30am 9.8 6.5 8.2 90 0.8 SW 15 22 8 12 1017.3 1017.4 0.2
18/10:00am 8.5 6.1 8.5 100 0.0 W 11 17 6 9 1017.1 1017.2 0.2
18/09:30am 7.4 3.6 7.4 100 0.0 SW 17 20 9 11 1017.2 1017.3 0.2
18/09:00am 7.5 4.5 7.5 100 0.0 WSW 13 17 7 9 1017.0 1017.1 1.6
18/08:30am 6.5 2.5 6.5 100 0.0 WSW 17 20 9 11 1016.8 1016.9 1.6
18/08:00am 6.1 2.0 6.1 100 0.0 W 17 20 9 11 1016.7 1016.8 1.4
18/07:30am 6.0 1.5 6.0 100 0.0 W 19 22 10 12 1016.4 1016.5 1.4
18/07:00am 6.1 2.4 6.1 100 0.0 W 15 19 8 10 1016.0 1016.1 1.4
18/06:30am 6.1 2.4 6.1 100 0.0 W 15 17 8 9 1015.7 1015.8 1.4
18/06:00am 6.0 1.9 6.0 100 0.0 W 17 20 9 11 1015.3 1015.4 1.4
18/05:30am 6.4 2.0 6.4 100 0.0 W 19 22 10 12 1015.0 1015.2 1.4
18/05:00am 6.5 2.5 6.5 100 0.0 W 17 20 9 11 1015.3 1015.4 1.4
18/04:30am 7.0 3.1 7.0 100 0.0 WSW 17 22 9 12 1015.2 1015.3 1.4
18/04:00am 6.9 2.6 6.9 100 0.0 W 19 28 10 15 1015.0 1015.2 1.4
18/03:30am 7.2 3.3 7.2 100 0.0 WSW 17 22 9 12 1015.2 1015.3 1.4
18/03:00am 7.2 3.3 7.2 100 0.0 W 17 22 9 12 1015.0 1015.2 1.4
18/02:30am 7.2 2.8 7.2 100 0.0 WSW 20 26 11 14 1015.4 1015.5 1.4
18/02:00am 7.1 3.6 7.1 100 0.0 W 15 20 8 11 1015.0 1015.2 1.4
18/01:30am 7.5 3.7 7.5 100 0.0 W 17 20 9 11 1014.9 1015.1 1.4
18/01:06am 7.5 3.7 7.5 100 0.0 W 17 24 9 13 1014.9 1015.1 1.4
18/01:00am 7.6 3.4 7.6 100 0.0 WSW 19 24 10 13 1015.0 1015.2 1.4
18/12:42am 7.7 3.4 7.7 100 0.0 WSW 20 28 11 15 1015.3 1015.4 1.2
18/12:30am 7.7 3.6 7.7 100 0.0 WSW 19 24 10 13 1015.3 1015.4 1.2
18/12:00am 7.9 4.2 7.9 100 0.0 WSW 17 20 9 11 1015.3 1015.4 1.2
 
Date/Time
EST
Temp
°C
App
Temp
°C
Dew
Point
°C
Rel
Hum
%
Delta-T
°C
Wind Press
QNH
hPa
Press
MSL
hPa
Rain since
9am
mm
Dir  Spd
km/h
Gust
km/h
Spd
kts
Gust
kts
17/11:41pm 7.8 4.8 7.8 100 0.0 WSW 13 22 7 12 1015.3 1015.4 1.2
17/11:30pm 8.0 4.3 8.0 100 0.0 SW 17 26 9 14 1015.4 1015.5 1.2
17/11:12pm 8.2 3.2 8.2 100 0.0 SSW 24 35 13 19 1015.5 1015.6 1.0
17/11:00pm 8.7 5.0 8.1 96 0.3 SSW 17 28 9 15 1015.4 1015.5 1.0
17/10:30pm 9.2 5.6 8.4 95 0.4 WSW 17 22 9 12 1015.0 1015.2 1.0
17/10:00pm 9.2 5.3 8.7 97 0.2 WSW 19 26 10 14 1014.8 1015.0 1.0
17/09:30pm 9.4 6.4 9.3 99 0.0 WSW 15 20 8 11 1014.6 1014.8 1.0
17/09:00pm 9.3 6.3 9.3 100 0.0 WSW 15 19 8 10 1014.6 1014.8 1.0
17/08:34pm 9.5 6.6 9.5 100 0.0 WSW 15 20 8 11 1014.6 1014.8 1.0
17/08:30pm 9.5 6.6 9.5 100 0.0 SW 15 20 8 11 1014.6 1014.8 1.0
17/08:00pm 9.8 6.6 9.8 100 0.0 SW 17 22 9 12 1014.3 1014.5 1.0
17/07:54pm 9.7 6.4 9.7 100 0.0 SW 17 22 9 12 1014.3 1014.5 1.0
17/07:36pm 9.7 6.4 9.7 100 0.0 SW 17 20 9 11 1014.1 1014.3 1.0
17/07:30pm 9.6 6.3 9.6 100 0.0 SSW 17 22 9 12 1014.1 1014.3 1.0
17/07:02pm 10.0 5.5 10.0 100 0.0 SW 24 30 13 16 1013.9 1014.1 1.0
17/07:00pm 10.0 5.9 10.0 100 0.0 SW 22 30 12 16 1013.8 1014.0 1.0
17/06:30pm 9.9 6.1 9.9 100 0.0 SW 20 26 11 14 1013.4 1013.6 1.0
17/06:29pm 9.9 6.1 9.9 100 0.0 SW 20 26 11 14 1013.4 1013.6 1.0
17/06:27pm 9.9 6.1 9.9 100 0.0 SW 20 28 11 15 1013.4 1013.6 1.0
17/06:04pm 10.3 5.1 10.3 100 0.0 SW 28 41 15 22 1013.2 1013.4 0.8
17/06:00pm 10.5 6.1 10.5 100 0.0 SW 24 41 13 22 1013.1 1013.3 0.8
17/05:55pm 10.8 7.3 10.8 100 0.0 SW 20 28 11 15 1012.9 1013.1 0.8
17/05:30pm 10.7 7.7 10.7 100 0.0 SSW 17 24 9 13 1012.7 1012.9 0.8
17/05:10pm 10.7 6.8 10.7 100 0.0 SSW 22 41 12 22 1012.5 1012.7 0.8
17/05:00pm 11.2 6.4 10.4 95 0.4 SSW 26 35 14 19 1012.5 1012.7 0.8
17/04:59pm 11.4 7.1 10.8 96 0.3 SSW 24 35 13 19 1012.4 1012.6 0.8
17/04:30pm 12.2 7.6 11.1 93 0.6 SW 26 33 14 18 1012.0 1012.2 0.8
17/04:00pm 12.2 10.0 12.0 99 0.1 SSW 15 20 8 11 1011.9 1012.1 0.8
17/03:49pm 12.1 9.1 12.1 100 0.0 SSW 19 24 10 13 1011.8 1012.0 0.8
17/03:32pm 12.0 9.4 12.0 100 0.0 SSW 17 24 9 13 1011.6 1011.7 0.8
17/03:30pm 11.9 9.3 11.9 100 0.0 SSW 17 26 9 14 1011.6 1011.7 0.8
17/03:12pm 11.9 8.7 11.9 100 0.0 SSW 20 26 11 14 1011.5 1011.6 0.8
17/03:00pm 12.0 8.4 12.0 100 0.0 SSW 22 30 12 16 1011.4 1011.5 0.8
17/02:30pm 12.4 9.5 12.4 100 0.0 S 19 28 10 15 1011.1 1011.2 0.8
17/02:12pm 12.3 9.2 12.3 100 0.0 SSW 20 28 11 15 1011.1 1011.2 0.8
17/02:00pm 12.0 8.8 12.0 100 0.0 SSW 20 26 11 14 1011.2 1011.3 0.8
17/01:37pm 12.6 10.2 12.6 100 0.0 SSW 17 20 9 11 1011.2 1011.3 0.0
17/01:30pm 12.1 9.5 12.1 100 0.0 SW 17 22 9 12 1011.3 1011.4 0.0
17/01:00pm 13.3 10.3 11.9 91 0.8 SW 19 24 10 13 1011.3 1011.4 0.0
17/12:55pm 13.7 10.6 12.1 90 0.9 SW 20 26 11 14 1011.4 1011.5 0.0
17/12:45pm 14.3 11.8 12.2 87 1.1 SSW 17 28 9 15 1011.4 1011.5 0.0
17/12:30pm 12.9 9.8 11.6 92 0.7 S 19 28 10 15 1011.6 1011.7 0.0
17/12:08pm 13.4 10.4 11.8 90 0.9 S 19 26 10 14 1011.8 1012.0 0.0
17/12:01pm 14.2 11.4 12.6 90 0.9 S 19 24 10 13 1012.0 1012.2 0.0
17/12:00pm 14.4 12.1 13.1 92 0.7 S 17 24 9 13 1012.0 1012.2 0.0
17/11:30am 13.1 10.1 12.0 93 0.6 S 19 24 10 13 1012.3 1012.5 0.0
17/11:00am 12.7 10.3 12.7 100 0.0 SSW 17 20 9 11 1012.6 1012.8 0.0
17/10:30am 12.3 10.2 12.3 100 0.0 SW 15 19 8 10 1012.6 1012.8 0.0
17/10:18am 12.4 10.7 12.4 100 0.0 SW 13 19 7 10 1012.5 1012.7 0.0
17/10:00am 11.4 10.1 11.4 100 0.0 SSW 9 13 5 7 1012.5 1012.7 0.0
17/09:30am 10.4 7.7 10.4 100 0.0 SW 15 20 8 11 1012.3 1012.5 0.0
17/09:00am 10.3 7.2 10.3 100 0.0 WSW 17 20 9 11 1012.1 1012.3 0.2
17/08:30am 9.7 7.2 9.7 100 0.0 W 13 17 7 9 1011.8 1012.0 0.2
17/08:00am 9.3 6.7 9.3 100 0.0 WSW 13 15 7 8 1011.3 1011.4 0.2
17/07:30am 8.9 6.2 8.9 100 0.0 WSW 13 17 7 9 1011.2 1011.3 0.2
17/07:00am 9.3 7.1 9.3 100 0.0 WSW 11 13 6 7 1011.3 1011.4 0.2
17/06:30am 9.3 7.1 9.3 100 0.0 W 11 13 6 7 1011.2 1011.3 0.2
17/06:00am 9.0 6.7 9.0 100 0.0 WNW 11 13 6 7 1011.0 1011.1 0.2
17/05:30am 8.8 6.8 8.8 100 0.0 WNW 9 13 5 7 1010.7 1010.8 0.2

Other formats

Comma delimited format used in spreadsheet applications
http://www.bom.gov.au/fwo/IDV60801/IDV60801.95866.axf

JavaScript Object Notation format (JSON) in row-major order
http://www.bom.gov.au/fwo/IDV60801/IDV60801.95866.json

Data quality

Most of these data are generated automatically and are frequently updated. Quality checks on data are not normally performed. It is possible for incorrect values to appear. Refer to information at About Latest Weather Observations and please check the disclaimer before using these data.